Bjaeverskov, Denmark
Current Conditions -  °F | °C
As of 3:20 AM on Saturday 25 Oct 2014 (Local Time) from EKRK Reporting Station
Rain Showers Rain Showers  
Wind Chill: 50°   Ceiling: 1100
Heat Index: 50°   Visibility: 3mi
Dew Point: 46°   Wind: 12mph
Humidity: 87%   Direction: 170°S
Pressure: 30"   Gusts: NA
Location:  55.46°N, 12.04°E
Report Text: EKRK 250120Z AUTO 17010KT 5000NDV -SHRA FEW008/// BKN011///BKN085/// 10/08 Q1016
Loading
Personal Weather Stations






























Interactive Weather Map
Tropical Storm Tracking
New forecast layout! Learn more

10-Day Weather Forecast

Advertisements
Track Severe Weather on mobile